createdAt,value
2023-01-08T09:11:07.439Z,6.01
2023-01-08T09:13:36.910Z,6.06
2023-01-08T09:16:04.058Z,6.13
2023-01-08T09:18:30.834Z,6.05
2023-01-08T09:20:57.623Z,6.05
2023-01-08T09:23:24.314Z,6.04
2023-01-08T09:25:59.087Z,6.04
2023-01-08T09:28:25.807Z,6.11
2023-01-08T09:30:52.745Z,6.09
2023-01-08T09:33:19.520Z,6.15
2023-01-08T09:35:46.293Z,6.19
2023-01-08T09:38:13.214Z,6.26
2023-01-08T09:40:44.231Z,6.23
2023-01-08T09:43:18.299Z,6.26
2023-01-08T09:45:47.538Z,6.29
2023-01-08T09:48:15.898Z,6.31
2023-01-08T09:50:43.264Z,6.33
2023-01-08T09:53:15.242Z,6.49
2023-01-08T09:55:42.869Z,6.77
2023-01-08T09:58:22.596Z,6.86
2023-01-08T10:00:49.556Z,6.77
2023-01-08T10:03:16.298Z,6.75
2023-01-08T10:05:43.006Z,6.71
2023-01-08T10:08:14.340Z,6.78
2023-01-08T10:10:41.627Z,6.66
2023-01-08T10:13:11.113Z,6.43
2023-01-08T10:15:37.989Z,6.40
2023-01-08T10:18:07.689Z,6.36
2023-01-08T10:20:35.775Z,6.30
2023-01-08T10:23:14.085Z,6.34
2023-01-08T10:25:59.210Z,6.41
2023-01-08T10:28:31.234Z,6.43
2023-01-08T10:31:15.382Z,6.45
2023-01-08T10:33:44.956Z,6.46
2023-01-08T10:36:17.045Z,6.54
2023-01-08T10:38:52.572Z,6.46
2023-01-08T10:41:19.895Z,6.54
2023-01-08T10:43:49.643Z,6.62
2023-01-08T10:46:28.324Z,6.69
2023-01-08T10:48:58.715Z,6.79
2023-01-08T10:51:27.589Z,6.89
2023-01-08T10:53:56.738Z,7.08
2023-01-08T10:56:28.989Z,7.28
2023-01-08T10:58:56.550Z,7.34
2023-01-08T11:01:25.793Z,7.53
2023-01-08T11:04:05.954Z,7.71
2023-01-08T11:06:34.618Z,7.76
2023-01-08T11:09:04.005Z,7.89
2023-01-08T11:11:34.846Z,8.45
2023-01-08T11:14:04.356Z,8.59
2023-01-08T11:16:36.966Z,8.83
2023-01-08T11:19:04.645Z,9.35
2023-01-08T11:21:32.543Z,9.31
2023-01-08T11:24:17.936Z,9.47
2023-01-08T11:26:49.366Z,9.61
2023-01-08T11:29:20.216Z,9.28
2023-01-08T11:32:16.170Z,9.10
2023-01-08T11:35:03.283Z,9.08
2023-01-08T11:37:37.604Z,9.01
2023-01-08T11:40:15.273Z,8.97
2023-01-08T11:42:51.179Z,8.86
2023-01-08T11:45:21.727Z,8.85
2023-01-08T11:48:05.858Z,8.79
2023-01-08T11:50:39.918Z,8.60
2023-01-08T11:53:15.058Z,8.48
2023-01-08T11:55:57.979Z,8.46
2023-01-08T11:58:33.903Z,8.54
2023-01-08T12:01:18.703Z,8.42
2023-01-08T12:04:39.664Z,8.42
2023-01-08T12:07:15.176Z,8.49
2023-01-08T12:09:46.888Z,8.44
2023-01-08T12:12:58.475Z,8.50
2023-01-08T12:15:47.104Z,8.66
2023-01-08T12:18:32.793Z,8.63
2023-01-08T12:21:11.135Z,8.66
2023-01-08T12:24:02.778Z,8.60
2023-01-08T12:26:50.895Z,8.63
2023-01-08T12:29:33.644Z,8.62
2023-01-08T12:32:15.326Z,8.56
2023-01-08T12:35:05.388Z,8.53
2023-01-08T12:37:39.482Z,8.56
2023-01-08T12:40:13.663Z,8.55
2023-01-08T12:42:47.196Z,8.61
2023-01-08T12:45:18.839Z,8.64
2023-01-08T12:47:48.824Z,8.62
2023-01-08T12:50:31.934Z,8.61
2023-01-08T12:53:07.864Z,8.60
2023-01-08T12:55:40.644Z,8.50
2023-01-08T12:58:13.198Z,8.42
2023-01-08T13:00:52.395Z,8.46
2023-01-08T13:03:22.807Z,8.43
2023-01-08T13:05:49.684Z,8.38
2023-01-08T13:08:35.246Z,8.38
2023-01-08T13:11:02.499Z,8.40
2023-01-08T13:13:41.876Z,8.41
2023-01-08T13:16:11.607Z,8.40
2023-01-08T13:18:38.711Z,8.37
2023-01-08T13:21:06.264Z,8.35
2023-01-08T13:23:35.106Z,8.39
2023-01-08T13:26:06.389Z,8.46
2023-01-08T13:28:45.099Z,8.51
2023-01-08T13:31:21.271Z,8.50
2023-01-08T13:33:49.224Z,8.49
2023-01-08T13:36:17.173Z,8.46
2023-01-08T13:38:45.101Z,8.44
2023-01-08T13:41:32.010Z,8.47
2023-01-08T13:44:07.415Z,8.51
2023-01-08T13:46:37.049Z,8.43
2023-01-08T13:49:08.631Z,8.37
2023-01-08T13:51:38.457Z,8.39
2023-01-08T13:54:15.689Z,8.40
2023-01-08T13:56:44.767Z,8.40
2023-01-08T13:59:28.918Z,8.37
2023-01-08T14:01:56.344Z,8.35
2023-01-08T14:04:24.471Z,8.35
2023-01-08T14:06:51.470Z,8.34
2023-01-08T14:09:25.338Z,8.31
2023-01-08T14:11:54.268Z,8.29
2023-01-08T14:14:23.004Z,8.29
2023-01-08T14:16:51.873Z,8.32
2023-01-08T14:19:21.541Z,8.28
2023-01-08T14:21:57.189Z,8.15
2023-01-08T14:24:25.547Z,8.04
2023-01-08T14:27:00.063Z,7.91
2023-01-08T14:29:34.532Z,7.79
2023-01-08T14:32:01.589Z,7.73
2023-01-08T14:34:30.446Z,7.73
2023-01-08T14:36:57.377Z,7.70
2023-01-08T14:39:26.508Z,7.67
2023-01-08T14:42:13.256Z,7.57
2023-01-08T14:44:42.604Z,7.46
2023-01-08T14:47:19.087Z,7.40
2023-01-08T14:49:51.485Z,7.36
2023-01-08T14:52:18.583Z,7.35
2023-01-08T14:54:46.511Z,7.33
2023-01-08T14:57:13.361Z,7.29
2023-01-08T14:59:40.110Z,7.31
2023-01-08T15:02:13.759Z,7.32
2023-01-08T15:04:40.679Z,7.33
2023-01-08T15:07:14.648Z,7.34
2023-01-08T15:09:41.352Z,7.37
2023-01-08T15:12:26.608Z,7.34
2023-01-08T15:14:55.291Z,7.37
2023-01-08T15:17:25.639Z,7.35
2023-01-08T15:19:55.632Z,7.33
2023-01-08T15:22:33.099Z,7.32
2023-01-08T15:25:02.288Z,7.33
2023-01-08T15:27:31.451Z,7.38
2023-01-08T15:30:03.637Z,7.40
2023-01-08T15:32:38.990Z,7.47
2023-01-08T15:35:16.731Z,7.48
2023-01-08T15:37:43.569Z,7.52
2023-01-08T15:40:11.987Z,7.51
2023-01-08T15:42:57.141Z,7.40
2023-01-08T15:45:28.517Z,7.42
2023-01-08T15:47:55.535Z,7.42
2023-01-08T15:50:22.346Z,7.44
2023-01-08T15:52:49.225Z,7.43
2023-01-08T15:55:17.920Z,7.43
2023-01-08T15:57:44.703Z,7.45
2023-01-08T16:00:19.769Z,7.53
2023-01-08T16:02:48.823Z,7.61
2023-01-08T16:05:19.872Z,7.69
2023-01-08T16:07:47.197Z,7.80
2023-01-08T16:10:15.491Z,7.87
2023-01-08T16:12:43.565Z,7.91
2023-01-08T16:15:11.324Z,7.89
2023-01-08T16:17:38.382Z,7.85
2023-01-08T16:20:06.874Z,7.77
2023-01-08T16:22:33.771Z,7.75
2023-01-08T16:25:00.447Z,7.64
2023-01-08T16:27:27.215Z,7.58
2023-01-08T16:29:53.960Z,7.51
2023-01-08T16:32:20.740Z,7.46
2023-01-08T16:34:47.745Z,7.49
2023-01-08T16:37:15.039Z,7.43
2023-01-08T16:39:42.079Z,7.38
2023-01-08T16:42:09.750Z,7.38
2023-01-08T16:44:36.819Z,7.35
2023-01-08T16:47:03.833Z,7.27
2023-01-08T16:49:32.363Z,7.25
2023-01-08T16:51:59.744Z,7.20
2023-01-08T16:54:27.394Z,7.16
2023-01-08T16:56:54.634Z,7.19
2023-01-08T16:59:23.990Z,7.22
2023-01-08T17:01:52.113Z,7.24
2023-01-08T17:04:19.257Z,7.21
2023-01-08T17:06:46.994Z,7.23
2023-01-08T17:09:14.864Z,7.28
2023-01-08T17:11:42.309Z,7.29
2023-01-08T17:14:09.630Z,7.28
2023-01-08T17:16:36.856Z,7.31
2023-01-08T17:19:04.291Z,7.32
2023-01-08T17:21:31.269Z,7.35
2023-01-08T17:23:58.259Z,7.37
2023-01-08T17:26:25.091Z,7.38
2023-01-08T17:28:52.324Z,7.30
2023-01-08T17:31:20.024Z,7.25
2023-01-08T17:33:51.132Z,7.25
2023-01-08T17:36:19.923Z,7.21
2023-01-08T17:38:53.391Z,7.25
2023-01-08T17:41:40.148Z,7.24
2023-01-08T17:44:08.781Z,7.27
2023-01-08T17:46:42.337Z,7.30
2023-01-08T17:49:11.238Z,7.29
2023-01-08T17:51:40.656Z,7.33
2023-01-08T17:54:12.084Z,7.36
2023-01-08T17:56:39.325Z,7.33
2023-01-08T17:59:06.969Z,7.36
2023-01-08T18:01:35.101Z,7.36
2023-01-08T18:04:02.922Z,7.27
2023-01-08T18:06:29.820Z,7.24
2023-01-08T18:08:56.830Z,7.27
2023-01-08T18:11:25.253Z,7.32
2023-01-08T18:13:56.899Z,7.29
2023-01-08T18:16:24.329Z,7.25
2023-01-08T18:18:51.304Z,7.23
2023-01-08T18:21:19.190Z,7.26
2023-01-08T18:23:49.018Z,7.30
2023-01-08T18:26:17.417Z,7.33
2023-01-08T18:28:44.572Z,7.34
2023-01-08T18:31:12.174Z,7.40
2023-01-08T18:33:39.648Z,7.43
2023-01-08T18:36:12.101Z,7.43
2023-01-08T18:38:40.791Z,7.46
2023-01-08T18:41:08.558Z,7.45
2023-01-08T18:43:36.062Z,7.47
2023-01-08T18:46:06.150Z,7.46
2023-01-08T18:48:33.477Z,7.43
2023-01-08T18:51:05.768Z,7.40
2023-01-08T18:53:33.289Z,7.39
2023-01-08T18:56:01.218Z,7.38
2023-01-08T18:58:28.948Z,7.39
2023-01-08T19:00:56.254Z,7.39
2023-01-08T19:03:23.312Z,7.43
2023-01-08T19:05:50.177Z,7.44
2023-01-08T19:08:17.060Z,7.41
2023-01-08T19:10:43.802Z,7.39
2023-01-08T19:13:10.897Z,7.42
2023-01-08T19:15:37.837Z,7.42
2023-01-08T19:18:05.954Z,7.39
2023-01-08T19:20:32.842Z,7.45
2023-01-08T19:22:59.605Z,7.45
2023-01-08T19:25:26.467Z,7.50
2023-01-08T19:27:53.206Z,7.51
2023-01-08T19:30:20.236Z,7.44
2023-01-08T19:32:48.884Z,7.41
2023-01-08T19:35:16.058Z,7.42
2023-01-08T19:37:43.201Z,7.42
2023-01-08T19:40:10.734Z,7.40
2023-01-08T19:42:56.238Z,7.39
2023-01-08T19:45:23.148Z,7.38
2023-01-08T19:47:50.043Z,7.38
2023-01-08T19:50:17.209Z,7.37
2023-01-08T19:52:44.147Z,7.36
2023-01-08T19:55:11.045Z,7.35
2023-01-08T19:57:38.021Z,7.30
2023-01-08T20:00:05.624Z,7.28
2023-01-08T20:02:32.845Z,7.25
2023-01-08T20:04:59.808Z,7.26
2023-01-08T20:07:26.651Z,7.24
2023-01-08T20:09:53.596Z,7.23
2023-01-08T20:12:20.441Z,7.23
2023-01-08T20:14:48.874Z,7.24
2023-01-08T20:17:18.526Z,7.24
2023-01-08T20:19:45.454Z,7.23
2023-01-08T20:22:12.371Z,7.26
2023-01-08T20:24:39.493Z,7.24
2023-01-08T20:27:07.639Z,7.24
2023-01-08T20:29:35.210Z,7.25
2023-01-08T20:32:04.918Z,7.23
2023-01-08T20:34:32.137Z,7.22
2023-01-08T20:36:59.734Z,7.25
2023-01-08T20:39:26.894Z,7.28
2023-01-08T20:42:03.338Z,7.31
2023-01-08T20:44:31.710Z,7.33
2023-01-08T20:46:58.921Z,7.37
2023-01-08T20:49:26.813Z,7.35
2023-01-08T20:51:59.095Z,7.36
2023-01-08T20:54:27.386Z,7.37
2023-01-08T20:56:58.202Z,7.41
2023-01-08T20:59:25.725Z,7.40
2023-01-08T21:01:52.900Z,7.36
2023-01-08T21:04:19.941Z,7.32
2023-01-08T21:06:46.729Z,7.22
2023-01-08T21:09:16.128Z,7.13
2023-01-08T21:11:42.948Z,7.07
2023-01-08T21:14:10.760Z,6.98
2023-01-08T21:16:39.629Z,6.92
2023-01-08T21:19:06.823Z,6.85
2023-01-08T21:21:38.995Z,6.74
2023-01-08T21:24:09.025Z,6.73
2023-01-08T21:26:37.134Z,6.72
2023-01-08T21:29:06.020Z,6.66
2023-01-08T21:31:32.962Z,6.66
2023-01-08T21:34:01.343Z,6.64
2023-01-08T21:36:29.641Z,6.74
2023-01-08T21:38:57.456Z,6.63
2023-01-08T21:41:44.202Z,6.68
2023-01-08T21:44:32.038Z,6.93
2023-01-08T21:47:00.101Z,7.14
2023-01-08T21:49:27.593Z,7.79
2023-01-08T21:52:13.426Z,7.93
2023-01-08T21:54:40.390Z,8.01
2023-01-08T21:57:08.199Z,8.23
2023-01-08T21:59:35.639Z,8.25
2023-01-08T22:02:02.841Z,8.46
2023-01-08T22:04:29.727Z,8.66
2023-01-08T22:06:56.513Z,8.68
2023-01-08T22:09:23.361Z,8.72
2023-01-08T22:11:50.252Z,8.77
2023-01-08T22:14:17.239Z,8.71
2023-01-08T22:16:44.059Z,8.64
2023-01-08T22:19:10.888Z,8.61
2023-01-08T22:21:38.829Z,8.66
2023-01-08T22:24:05.928Z,8.61
2023-01-08T22:26:35.153Z,8.58
2023-01-08T22:29:03.275Z,8.55
2023-01-08T22:31:30.009Z,8.58
2023-01-08T22:33:58.044Z,8.52
2023-01-08T22:36:24.982Z,8.48
2023-01-08T22:38:51.801Z,8.53
2023-01-08T22:41:20.672Z,8.62
2023-01-08T22:43:47.864Z,8.60
2023-01-08T22:46:16.247Z,8.66
2023-01-08T22:48:43.870Z,8.78
2023-01-08T22:51:11.325Z,8.83
2023-01-08T22:53:38.106Z,8.87
2023-01-08T22:56:12.382Z,8.99
2023-01-08T22:58:40.632Z,9.00
2023-01-08T23:01:12.680Z,8.97
2023-01-08T23:03:45.678Z,9.05
2023-01-08T23:06:13.346Z,9.13
2023-01-08T23:08:41.146Z,9.13
2023-01-08T23:11:09.795Z,9.11
2023-01-08T23:13:37.174Z,9.17
2023-01-08T23:16:05.392Z,9.15
2023-01-08T23:18:32.168Z,9.03
2023-01-08T23:21:09.328Z,8.84
2023-01-08T23:23:36.144Z,8.67
2023-01-08T23:26:08.238Z,8.49
2023-01-08T23:28:35.066Z,8.30
2023-01-08T23:31:01.820Z,8.25
2023-01-08T23:33:28.524Z,8.23
2023-01-08T23:35:55.216Z,8.16
2023-01-08T23:38:21.933Z,8.02
2023-01-08T23:40:48.641Z,7.91
2023-01-08T23:43:15.523Z,7.81
2023-01-08T23:45:42.370Z,7.72
2023-01-08T23:48:09.541Z,7.64
2023-01-08T23:50:36.436Z,7.58
2023-01-08T23:53:03.912Z,7.52
2023-01-08T23:55:30.604Z,7.46
2023-01-08T23:57:57.607Z,7.35
